Time;durP1;ratioP1;P1;durP2;ratioP2;P2;SDS_P1;SDS_P2;PMS_P1;PMS_P2;Temp;Humidity;BMP_temperature;BMP_pressure;BME280_temperature;BME280_humidity;BME280_pressure;Samples;Min_cycle;Max_cycle;Signal;HPM_P1;HPM_P2
2022/09/22 00:01:01;;;;;;;1.75;0.50;;;8.60;99.90;;;;;;5021196;28;20073;-80
2022/09/22 00:03:36;;;;;;;3.17;0.73;;;8.50;99.90;;;;;;4994135;28;20041;-80
2022/09/22 00:06:19;;;;;;;0.80;0.30;;;8.50;99.90;;;;;;5012263;28;20031;-80
2022/09/22 00:08:48;;;;;;;2.35;0.47;;;8.50;99.90;;;;;;5014911;28;20036;-80
2022/09/22 00:11:15;;;;;;;1.90;0.50;;;8.40;99.90;;;;;;5006228;28;20510;-81
2022/09/22 00:13:43;;;;;;;1.67;0.40;;;8.60;99.90;;;;;;5020966;28;20025;-80
2022/09/22 00:16:10;;;;;;;1.13;0.43;;;8.30;99.90;;;;;;5023843;28;20038;-80
2022/09/22 00:18:37;;;;;;;0.52;0.32;;;8.40;99.90;;;;;;5002394;28;20081;-80
2022/09/22 00:21:08;;;;;;;0.85;0.38;;;8.50;99.90;;;;;;5019903;28;20037;-80
2022/09/22 00:23:34;;;;;;;1.38;0.50;;;8.40;99.90;;;;;;5021742;28;20022;-80
2022/09/22 00:26:08;;;;;;;2.70;0.80;;;8.40;99.90;;;;;;5022903;28;20036;-81
2022/09/22 00:28:34;;;;;;;0.82;0.40;;;8.40;99.90;;;;;;5005458;28;20045;-80
2022/09/22 00:31:04;;;;;;;1.77;0.47;;;8.40;99.90;;;;;;5006445;28;20021;-79
2022/09/22 00:33:29;;;;;;;1.27;0.43;;;8.40;99.90;;;;;;5002026;28;20049;-80
2022/09/22 00:35:57;;;;;;;3.10;0.65;;;8.30;99.90;;;;;;5004938;28;20156;-80
2022/09/22 00:38:23;;;;;;;2.70;0.73;;;8.10;99.90;;;;;;5002430;28;20023;-80
2022/09/22 00:40:49;;;;;;;1.55;0.70;;;8.30;99.90;;;;;;5005190;28;20030;-80
2022/09/22 00:43:19;;;;;;;1.15;0.50;;;8.50;99.90;;;;;;5019666;28;20458;-80
2022/09/22 00:46:00;;;;;;;1.50;0.50;;;8.10;99.90;;;;;;5004741;28;20029;-81
2022/09/22 00:48:30;;;;;;;1.13;0.55;;;8.10;99.90;;;;;;5002893;28;20084;-80
2022/09/22 00:50:58;;;;;;;0.93;0.40;;;8.20;99.90;;;;;;5017337;28;20033;-81
2022/09/22 00:53:24;;;;;;;1.63;0.50;;;8.30;99.90;;;;;;5004748;28;20037;-80
2022/09/22 00:56:07;;;;;;;2.13;0.70;;;8.20;99.90;;;;;;5021610;28;20026;-80
2022/09/22 00:58:43;;;;;;;1.55;0.90;;;8.10;99.90;;;;;;5022023;28;20026;-80
2022/09/22 01:01:09;;;;;;;1.67;0.68;;;8.20;99.90;;;;;;4997238;28;20034;-80
2022/09/22 01:03:38;;;;;;;0.98;0.50;;;8.50;99.90;;;;;;5002321;28;20030;-81
2022/09/22 01:06:08;;;;;;;3.03;0.70;;;8.10;99.90;;;;;;5017245;28;20026;-80
2022/09/22 01:08:35;;;;;;;1.85;0.60;;;8.50;99.90;;;;;;5023154;28;20037;-80
2022/09/22 01:11:01;;;;;;;2.13;0.70;;;8.00;99.90;;;;;;5021915;28;20054;-79
2022/09/22 01:13:55;;;;;;;2.05;0.70;;;8.00;99.90;;;;;;5006568;28;20037;-80
2022/09/22 01:16:32;;;;;;;0.95;0.50;;;8.00;99.90;;;;;;4968873;28;20073;-79
2022/09/22 01:19:15;;;;;;;2.38;0.80;;;7.90;99.90;;;;;;5015325;28;20034;-80
2022/09/22 01:21:50;;;;;;;2.30;0.70;;;7.90;99.90;;;;;;5004829;28;20101;-80
2022/09/22 01:24:42;;;;;;;1.08;0.60;;;7.80;99.90;;;;;;5005071;28;20511;-80
2022/09/22 01:27:14;;;;;;;2.25;0.60;;;7.80;99.90;;;;;;5014502;28;20034;-80
2022/09/22 01:29:55;;;;;;;2.58;0.73;;;7.80;99.90;;;;;;5016884;28;20021;-80
2022/09/22 01:32:32;;;;;;;1.98;0.85;;;7.70;99.90;;;;;;5004431;28;20026;-80
2022/09/22 01:35:10;;;;;;;2.55;0.60;;;7.70;99.90;;;;;;5003076;28;20088;-80
2022/09/22 01:37:53;;;;;;;2.17;0.88;;;7.70;99.90;;;;;;5009362;28;20025;-80
2022/09/22 01:40:49;;;;;;;2.20;0.70;;;7.70;99.90;;;;;;5009278;28;20102;-79
2022/09/22 01:43:30;;;;;;;1.65;0.60;;;7.70;99.90;;;;;;5021087;28;20041;-80
2022/09/22 01:46:00;;;;;;;1.55;0.60;;;7.70;99.90;;;;;;5013310;28;20036;-80
2022/09/22 01:48:30;;;;;;;1.52;0.70;;;7.70;99.90;;;;;;5025970;28;20026;-80
2022/09/22 01:51:08;;;;;;;2.08;0.80;;;8.00;99.90;;;;;;5026536;28;20030;-80
2022/09/22 01:53:38;;;;;;;2.40;0.63;;;7.80;99.90;;;;;;5008520;28;20033;-80
2022/09/22 01:56:08;;;;;;;2.00;0.77;;;7.80;99.90;;;;;;5008787;28;20026;-79
2022/09/22 01:58:39;;;;;;;1.15;0.50;;;7.90;99.90;;;;;;5007808;28;20164;-81
2022/09/22 02:01:09;;;;;;;1.38;0.55;;;7.80;99.90;;;;;;5005587;28;20026;-80
2022/09/22 02:04:03;;;;;;;2.88;0.73;;;7.90;99.90;;;;;;5007635;28;20033;-80
2022/09/22 02:06:36;;;;;;;0.95;0.45;;;7.80;99.90;;;;;;5003978;28;20026;-79
2022/09/22 02:09:04;;;;;;;1.35;0.50;;;7.80;99.90;;;;;;5004714;28;20117;-80
2022/09/22 02:11:30;;;;;;;1.85;0.60;;;7.80;99.90;;;;;;5005216;28;20499;-81
2022/09/22 02:13:56;;;;;;;1.55;0.60;;;7.70;99.90;;;;;;5008656;28;20060;-80
2022/09/22 02:16:23;;;;;;;1.38;0.55;;;7.70;99.90;;;;;;5026851;28;20462;-80
2022/09/22 02:18:50;;;;;;;2.45;0.50;;;7.70;99.90;;;;;;5001336;28;20033;-80
2022/09/22 02:21:17;;;;;;;1.40;0.40;;;7.70;99.90;;;;;;5025296;28;20469;-81
2022/09/22 02:23:45;;;;;;;0.93;0.40;;;7.60;99.90;;;;;;5023749;28;20025;-80
2022/09/22 02:26:14;;;;;;;1.13;0.50;;;7.70;99.90;;;;;;5002766;28;20030;-79
2022/09/22 02:28:42;;;;;;;1.40;0.60;;;7.70;99.90;;;;;;5007746;28;20133;-80
2022/09/22 02:31:09;;;;;;;1.58;0.57;;;7.70;99.90;;;;;;5014674;28;20029;-80
2022/09/22 02:33:37;;;;;;;1.58;0.50;;;8.00;99.90;;;;;;5008294;28;20029;-79
2022/09/22 02:36:19;;;;;;;0.98;0.40;;;7.70;99.90;;;;;;5024970;28;20085;-80
2022/09/22 02:39:03;;;;;;;1.58;0.47;;;7.60;99.90;;;;;;5024167;28;20024;-80
2022/09/22 02:41:54;;;;;;;1.77;0.60;;;7.70;99.90;;;;;;5021405;28;20045;-81
2022/09/22 02:44:40;;;;;;;1.73;0.50;;;7.60;99.90;;;;;;5008406;28;20018;-81
2022/09/22 02:47:11;;;;;;;1.70;0.60;;;7.60;99.90;;;;;;5022097;28;20029;-80
2022/09/22 02:49:38;;;;;;;1.13;0.50;;;7.60;99.90;;;;;;5025163;28;20037;-80
2022/09/22 02:52:11;;;;;;;1.27;0.45;;;7.60;99.90;;;;;;5024968;28;20018;-80
2022/09/22 02:54:38;;;;;;;1.83;0.57;;;7.60;99.90;;;;;;5022862;28;20808;-80
2022/09/22 02:57:04;;;;;;;1.10;0.50;;;7.60;99.90;;;;;;5008453;28;20030;-80
2022/09/22 02:59:29;;;;;;;1.52;0.45;;;7.60;99.90;;;;;;5007253;28;20030;-79
2022/09/22 03:01:55;;;;;;;1.30;0.40;;;7.50;99.90;;;;;;5007078;28;20052;-80
2022/09/22 03:04:21;;;;;;;1.60;0.47;;;7.50;99.90;;;;;;5000894;28;20034;-80
2022/09/22 03:06:46;;;;;;;1.77;0.70;;;7.50;99.90;;;;;;5023516;28;20018;-80
2022/09/22 03:09:15;;;;;;;2.75;1.02;;;7.40;99.90;;;;;;5007507;28;20034;-80
2022/09/22 03:11:41;;;;;;;1.88;0.55;;;7.40;99.90;;;;;;5006450;28;20022;-80
2022/09/22 03:14:06;;;;;;;1.67;0.52;;;7.40;99.90;;;;;;5019549;28;20034;-80
2022/09/22 03:16:32;;;;;;;2.90;0.63;;;7.40;99.90;;;;;;5025779;28;20037;-79
2022/09/22 03:18:58;;;;;;;2.15;0.52;;;7.50;99.90;;;;;;5025477;28;20034;-79
2022/09/22 03:21:24;;;;;;;1.95;0.65;;;7.40;99.90;;;;;;5006975;28;20022;-80
2022/09/22 03:23:49;;;;;;;1.55;0.63;;;7.40;99.90;;;;;;5007196;28;20021;-80
2022/09/22 03:26:15;;;;;;;1.63;0.50;;;7.20;99.90;;;;;;5001645;28;20524;-81
2022/09/22 03:28:42;;;;;;;2.22;0.90;;;7.30;99.90;;;;;;5024246;28;20038;-80
2022/09/22 03:31:10;;;;;;;1.33;0.50;;;7.30;99.90;;;;;;5024873;28;20021;-81
2022/09/22 03:33:36;;;;;;;3.08;0.63;;;7.30;99.90;;;;;;5024214;28;20109;-80
2022/09/22 03:36:02;;;;;;;1.65;0.60;;;7.30;99.90;;;;;;5006956;28;20049;-79
2022/09/22 03:38:27;;;;;;;3.47;0.80;;;7.30;99.90;;;;;;5022904;28;20050;-80
2022/09/22 03:40:53;;;;;;;2.30;1.13;;;7.30;99.90;;;;;;5024120;28;20021;-80
2022/09/22 03:43:19;;;;;;;1.40;0.60;;;7.20;99.90;;;;;;5021312;28;20025;-80
2022/09/22 03:45:46;;;;;;;2.83;0.63;;;7.20;99.90;;;;;;5007159;28;20017;-80
2022/09/22 03:48:12;;;;;;;1.25;0.47;;;7.20;99.90;;;;;;5025572;28;20034;-80
2022/09/22 03:50:38;;;;;;;1.73;0.50;;;7.20;99.90;;;;;;4990377;28;20093;-80
2022/09/22 03:53:03;;;;;;;1.83;0.55;;;7.20;99.90;;;;;;5020187;28;20040;-80
2022/09/22 03:55:29;;;;;;;1.65;0.60;;;7.20;99.90;;;;;;5024416;28;20030;-80
2022/09/22 03:57:54;;;;;;;2.65;1.00;;;7.20;99.90;;;;;;5021180;28;20026;-80
2022/09/22 04:00:20;;;;;;;4.18;0.90;;;7.20;99.90;;;;;;5019997;28;20034;-80
2022/09/22 04:02:46;;;;;;;3.15;1.20;;;7.20;99.90;;;;;;5029127;28;20014;-80
2022/09/22 04:05:11;;;;;;;2.85;0.98;;;7.20;99.90;;;;;;5022485;28;20022;-79
2022/09/22 04:07:37;;;;;;;3.03;1.40;;;7.30;99.90;;;;;;4998137;28;20034;-80
2022/09/22 04:10:04;;;;;;;2.38;1.27;;;7.30;99.90;;;;;;5022767;28;20080;-80
2022/09/22 04:12:29;;;;;;;3.65;1.63;;;7.20;99.90;;;;;;5000518;28;20533;-79
2022/09/22 04:14:55;;;;;;;5.43;2.10;;;7.20;99.90;;;;;;5003880;28;20034;-81
2022/09/22 04:17:21;;;;;;;2.67;1.20;;;7.20;99.90;;;;;;5007237;28;20628;-80
2022/09/22 04:19:46;;;;;;;3.92;1.33;;;7.50;99.90;;;;;;5020756;28;20691;-80
2022/09/22 04:22:13;;;;;;;3.40;1.10;;;7.20;99.90;;;;;;5006912;28;20022;-79
2022/09/22 04:24:38;;;;;;;2.58;1.10;;;7.10;99.90;;;;;;5006297;28;20022;-80
2022/09/22 04:27:04;;;;;;;3.15;1.13;;;7.10;99.90;;;;;;5018364;28;21520;-80
2022/09/22 04:29:29;;;;;;;2.72;0.80;;;7.10;99.90;;;;;;5005739;28;20133;-80
2022/09/22 04:31:55;;;;;;;1.38;0.65;;;7.10;99.90;;;;;;5023717;28;20025;-80
2022/09/22 04:34:21;;;;;;;2.20;0.85;;;7.00;99.90;;;;;;5005375;28;20045;-80
2022/09/22 04:36:46;;;;;;;1.75;0.80;;;7.00;99.90;;;;;;5005257;28;20066;-80
2022/09/22 04:39:12;;;;;;;2.40;0.90;;;7.00;99.90;;;;;;5005782;28;20018;-80
2022/09/22 04:41:38;;;;;;;1.70;0.70;;;7.00;99.90;;;;;;5022793;28;20590;-79
2022/09/22 04:44:03;;;;;;;2.47;0.82;;;7.00;99.90;;;;;;5003519;28;20052;-79
2022/09/22 04:46:29;;;;;;;1.98;0.90;;;7.10;99.90;;;;;;5019726;28;20021;-80
2022/09/22 04:48:55;;;;;;;1.30;0.70;;;7.00;99.90;;;;;;5005173;28;20030;-80
2022/09/22 04:51:21;;;;;;;2.97;0.88;;;6.90;99.90;;;;;;5007697;28;20053;-78
2022/09/22 04:53:46;;;;;;;2.63;0.88;;;6.90;99.90;;;;;;5024949;28;20034;-80
2022/09/22 04:56:12;;;;;;;2.72;1.17;;;6.90;99.90;;;;;;5008510;28;20092;-79
2022/09/22 04:58:38;;;;;;;2.17;0.73;;;6.90;99.90;;;;;;5007345;28;20033;-78
2022/09/22 05:01:05;;;;;;;2.47;0.90;;;6.90;99.90;;;;;;5008897;28;20033;-80
2022/09/22 05:03:31;;;;;;;4.32;0.95;;;6.90;99.90;;;;;;5008336;28;20030;-79
2022/09/22 05:05:57;;;;;;;1.77;0.98;;;6.90;99.90;;;;;;5005668;28;20038;-78
2022/09/22 05:08:23;;;;;;;2.90;1.00;;;6.90;99.90;;;;;;5034510;28;20061;-80
2022/09/22 05:10:49;;;;;;;2.08;0.82;;;6.80;99.90;;;;;;5026752;28;20030;-79
2022/09/22 05:13:14;;;;;;;5.88;1.42;;;6.80;99.90;;;;;;5009834;28;20091;-80
2022/09/22 05:15:40;;;;;;;4.95;0.93;;;6.80;99.90;;;;;;5027201;28;20038;-79
2022/09/22 05:18:08;;;;;;;2.63;1.10;;;6.80;99.90;;;;;;5022022;28;20041;-80
2022/09/22 05:20:33;;;;;;;2.20;0.90;;;6.80;99.90;;;;;;5010324;28;20037;-79
2022/09/22 05:22:59;;;;;;;2.30;0.95;;;6.80;99.90;;;;;;5023571;28;20076;-80
2022/09/22 05:25:25;;;;;;;3.25;1.25;;;6.80;99.90;;;;;;5021625;28;20399;-79
2022/09/22 05:27:55;;;;;;;4.07;1.08;;;6.70;99.90;;;;;;5008375;28;20030;-80
2022/09/22 05:30:23;;;;;;;2.25;1.00;;;6.80;99.90;;;;;;5017919;28;20038;-80
2022/09/22 05:32:49;;;;;;;1.98;0.98;;;6.80;99.90;;;;;;5025963;28;20033;-81
2022/09/22 05:35:18;;;;;;;2.80;1.13;;;6.80;99.90;;;;;;5028457;28;20022;-79
2022/09/22 05:37:47;;;;;;;2.83;1.10;;;6.90;99.90;;;;;;5029465;28;20049;-80
2022/09/22 05:40:14;;;;;;;2.20;1.00;;;7.00;99.90;;;;;;5009472;28;20030;-80
2022/09/22 05:42:46;;;;;;;3.22;1.27;;;7.00;99.90;;;;;;5027561;28;20492;-79
2022/09/22 05:45:13;;;;;;;;;;;7.00;99.90;;;;;;5001992;28;20045;-80
2022/09/22 05:47:39;;;;;;;2.72;0.95;;;7.10;99.90;;;;;;5010372;28;19905;-79
2022/09/22 05:50:06;;;;;;;2.72;0.85;;;7.10;99.90;;;;;;5010742;28;20030;-79
2022/09/22 05:52:32;;;;;;;3.92;1.30;;;7.10;99.90;;;;;;5024561;28;20106;-80
2022/09/22 05:54:58;;;;;;;2.78;0.90;;;7.20;99.90;;;;;;5027393;28;20059;-79
2022/09/22 05:57:26;;;;;;;1.27;0.63;;;7.20;99.90;;;;;;5027293;28;20022;-80
2022/09/22 05:59:56;;;;;;;2.30;0.90;;;7.20;99.90;;;;;;5021806;28;20078;-80
2022/09/22 06:02:22;;;;;;;6.05;0.95;;;7.20;99.90;;;;;;5025850;28;20034;-79
2022/09/22 06:04:48;;;;;;;2.53;1.38;;;7.30;99.90;;;;;;5001832;28;20022;-80
2022/09/22 06:07:14;;;;;;;2.05;0.80;;;7.40;99.90;;;;;;5026842;28;20514;-80
2022/09/22 06:09:40;;;;;;;2.22;0.93;;;7.40;99.90;;;;;;5008691;28;20032;-80
2022/09/22 06:12:07;;;;;;;3.80;1.02;;;7.40;99.90;;;;;;5007766;28;20103;-79
2022/09/22 06:14:33;;;;;;;2.08;0.80;;;7.50;99.90;;;;;;5008623;28;20037;-80
2022/09/22 06:16:58;;;;;;;1.55;0.68;;;7.60;99.90;;;;;;5008758;28;20092;-80
2022/09/22 06:19:25;;;;;;;2.58;0.98;;;7.60;99.90;;;;;;5005643;28;20038;-79
2022/09/22 06:21:51;;;;;;;2.72;1.30;;;7.70;99.90;;;;;;5008438;28;20092;-80
2022/09/22 06:24:17;;;;;;;2.55;1.00;;;7.80;99.90;;;;;;5007231;28;20030;-80
2022/09/22 06:26:44;;;;;;;2.92;1.33;;;7.80;99.90;;;;;;5023220;28;20053;-79
2022/09/22 06:29:09;;;;;;;4.65;0.98;;;7.90;99.90;;;;;;5002094;28;20422;-78
2022/09/22 06:31:35;;;;;;;2.10;1.05;;;8.00;99.90;;;;;;5007975;28;20061;-79
2022/09/22 06:34:01;;;;;;;1.20;0.65;;;8.20;99.90;;;;;;5008534;28;20034;-79
2022/09/22 06:36:30;;;;;;;5.28;1.08;;;8.30;99.90;;;;;;5007551;28;20537;-80
2022/09/22 06:38:57;;;;;;;2.92;0.82;;;8.30;99.90;;;;;;5017059;28;20021;-79
2022/09/22 06:41:27;;;;;;;2.38;0.88;;;8.50;99.90;;;;;;5007947;28;20049;-80
2022/09/22 06:43:56;;;;;;;1.73;0.75;;;8.60;99.90;;;;;;5022257;28;20063;-79
2022/09/22 06:46:26;;;;;;;2.90;0.90;;;8.70;99.90;;;;;;5021556;28;20026;-79
2022/09/22 06:48:56;;;;;;;3.72;1.05;;;8.80;99.90;;;;;;5024073;28;20053;-79
2022/09/22 06:51:30;;;;;;;2.33;1.10;;;8.90;99.90;;;;;;5000511;28;20053;-80
2022/09/22 06:53:56;;;;;;;2.22;0.90;;;9.00;99.90;;;;;;5022591;28;20475;-79
2022/09/22 06:56:26;;;;;;;2.45;0.90;;;9.10;99.90;;;;;;5005452;28;20032;-80
2022/09/22 06:58:55;;;;;;;2.55;0.90;;;9.20;99.90;;;;;;5005137;28;20044;-79
2022/09/22 07:01:22;;;;;;;2.47;0.82;;;9.20;99.90;;;;;;5028839;28;20045;-80
2022/09/22 07:03:49;;;;;;;2.60;1.05;;;9.30;99.90;;;;;;5005647;28;20088;-80
2022/09/22 07:06:19;;;;;;;5.70;1.17;;;9.40;99.90;;;;;;5001934;28;20029;-79
2022/09/22 07:08:47;;;;;;;4.15;1.25;;;9.40;99.90;;;;;;5023874;28;20058;-80
2022/09/22 07:11:14;;;;;;;1.33;0.80;;;9.60;99.90;;;;;;5023832;28;20266;-80
2022/09/22 07:13:41;;;;;;;3.20;1.10;;;9.50;99.90;;;;;;5005782;28;20065;-80
2022/09/22 07:16:16;;;;;;;3.90;1.05;;;9.40;99.90;;;;;;5005005;28;20339;-79
2022/09/22 07:18:45;;;;;;;2.05;1.00;;;9.50;99.90;;;;;;5003933;28;20051;-80
2022/09/22 07:21:12;;;;;;;2.63;1.00;;;9.70;99.90;;;;;;5005242;28;20018;-80
2022/09/22 07:23:39;;;;;;;3.55;1.15;;;9.70;99.90;;;;;;5016564;28;20045;-79
2022/09/22 07:26:07;;;;;;;3.10;1.05;;;9.70;99.90;;;;;;5005647;28;20030;-79
2022/09/22 07:28:34;;;;;;;2.38;0.95;;;9.80;99.90;;;;;;4999063;28;20030;-79
2022/09/22 07:31:08;;;;;;;4.88;1.02;;;10.10;99.90;;;;;;5000031;28;20529;-79
2022/09/22 07:33:35;;;;;;;2.50;0.98;;;9.90;99.90;;;;;;5017452;28;20033;-80
2022/09/22 07:36:09;;;;;;;5.47;1.30;;;9.90;99.90;;;;;;5022917;28;20037;-80
2022/09/22 07:38:40;;;;;;;5.50;1.23;;;9.90;99.90;;;;;;5003585;28;20487;-80
2022/09/22 07:41:10;;;;;;;3.53;1.65;;;10.10;99.90;;;;;;5021243;28;20046;-80
2022/09/22 07:43:37;;;;;;;3.78;1.65;;;10.20;99.90;;;;;;5005207;28;20033;-79
2022/09/22 07:46:03;;;;;;;2.15;1.00;;;10.20;99.90;;;;;;5002828;28;20049;-81
2022/09/22 07:48:35;;;;;;;3.92;1.70;;;10.40;99.90;;;;;;4998763;28;20030;-81
2022/09/22 07:51:01;;;;;;;2.80;1.58;;;10.40;99.90;;;;;;5001556;28;20056;-83
2022/09/22 07:53:30;;;;;;;3.47;1.30;;;10.40;99.90;;;;;;5020000;28;20034;-82
2022/09/22 07:56:02;;;;;;;3.28;1.20;;;10.60;99.90;;;;;;5012280;28;20029;-82
2022/09/22 07:58:29;;;;;;;2.58;1.05;;;10.70;99.90;;;;;;5011365;28;20025;-82
2022/09/22 08:00:54;;;;;;;3.08;1.10;;;10.80;99.90;;;;;;5013609;28;20085;-82
2022/09/22 08:03:20;;;;;;;5.70;1.27;;;10.80;99.90;;;;;;4997824;28;20517;-82
2022/09/22 08:05:48;;;;;;;1.92;0.95;;;11.00;99.90;;;;;;5017561;28;20108;-82
2022/09/22 08:08:15;;;;;;;2.28;0.82;;;11.00;99.90;;;;;;5000843;28;20390;-82
2022/09/22 08:10:40;;;;;;;3.25;1.20;;;11.10;99.90;;;;;;5019871;28;20025;-82
2022/09/22 08:13:07;;;;;;;3.50;1.10;;;11.30;99.90;;;;;;5002365;28;20026;-82
2022/09/22 08:15:34;;;;;;;5.00;0.98;;;11.50;99.90;;;;;;5000854;28;20034;-82
2022/09/22 08:18:02;;;;;;;2.08;0.77;;;11.50;99.90;;;;;;5019361;28;20517;-82
2022/09/22 08:20:28;;;;;;;1.65;0.73;;;11.60;99.90;;;;;;5001655;28;20029;-82
2022/09/22 08:22:57;;;;;;;2.20;0.80;;;11.60;99.90;;;;;;5027196;23;20478;-88
2022/09/22 08:25:24;;;;;;;1.95;1.00;;;11.80;99.90;;;;;;5029037;28;20021;-88
2022/09/22 08:27:50;;;;;;;2.65;1.20;;;11.90;99.90;;;;;;5019608;28;20456;-89
2022/09/22 08:30:18;;;;;;;3.17;1.17;;;12.00;99.90;;;;;;5030202;28;20018;-88
2022/09/22 08:32:44;;;;;;;2.28;1.00;;;12.00;99.90;;;;;;5029873;28;20394;-88
2022/09/22 08:35:10;;;;;;;2.17;0.80;;;12.10;99.90;;;;;;5027978;28;20084;-88
2022/09/22 08:37:36;;;;;;;2.28;1.00;;;12.30;99.90;;;;;;5029335;28;20052;-88
2022/09/22 08:40:04;;;;;;;1.77;0.85;;;12.30;99.90;;;;;;5029936;28;20018;-88
2022/09/22 08:42:30;;;;;;;2.22;0.90;;;12.30;99.90;;;;;;5030349;28;20455;-88
2022/09/22 08:44:58;;;;;;;4.10;0.80;;;12.50;99.90;;;;;;5028516;28;20116;-88
2022/09/22 08:53:21;;;;;;;1.42;0.45;;;12.80;99.90;;;;;;5028920;28;20566;-88
2022/09/22 08:55:54;;;;;;;2.42;0.50;;;13.00;99.90;;;;;;5045128;28;20040;-89
2022/09/22 08:58:42;;;;;;;1.60;0.57;;;13.40;99.90;;;;;;5029665;28;20029;-89
2022/09/22 09:01:23;;;;;;;3.35;1.10;;;13.30;99.90;;;;;;5025291;28;20018;-89
2022/09/22 09:04:20;;;;;;;1.03;0.33;;;13.50;99.90;;;;;;5029280;28;20141;-88
2022/09/22 09:07:02;;;;;;;1.67;0.43;;;13.60;99.90;;;;;;5027854;28;20030;-88
2022/09/22 09:09:39;;;;;;;2.50;0.65;;;13.50;99.90;;;;;;5026689;28;20034;-87
2022/09/22 09:12:24;;;;;;;1.33;0.50;;;13.60;99.90;;;;;;5040914;28;20367;-87
2022/09/22 09:15:20;;;;;;;1.63;0.60;;;13.90;99.90;;;;;;5029686;28;20101;-88
2022/09/22 09:17:47;;;;;;;1.95;0.55;;;14.00;99.90;;;;;;5039915;28;20121;-88
2022/09/22 09:20:16;;;;;;;1.88;0.50;;;14.30;99.90;;;;;;5027378;28;20028;-87
2022/09/22 09:22:54;;;;;;;2.35;0.57;;;14.30;99.90;;;;;;5029081;28;20082;-87
2022/09/22 09:25:33;;;;;;;1.55;0.40;;;14.30;99.90;;;;;;5026148;28;20546;-87
2022/09/22 09:28:05;;;;;;;1.23;0.50;;;14.50;99.90;;;;;;5028807;28;20117;-87
2022/09/22 09:30:40;;;;;;;0.98;0.50;;;14.60;99.90;;;;;;5029054;28;20025;-88
2022/09/22 09:33:39;;;;;;;2.13;0.50;;;14.70;99.90;;;;;;5029846;28;20067;-87
2022/09/22 09:36:14;;;;;;;1.00;0.40;;;14.70;99.90;;;;;;5018839;28;20033;-88
2022/09/22 09:38:47;;;;;;;0.70;0.38;;;14.70;99.90;;;;;;5031881;28;20026;-87
2022/09/22 09:41:18;;;;;;;1.85;0.50;;;15.00;99.90;;;;;;5032912;28;20032;-87
2022/09/22 09:43:44;;;;;;;1.65;0.60;;;15.20;99.90;;;;;;5033412;28;20037;-88
2022/09/22 09:46:33;;;;;;;1.45;0.45;;;15.30;99.90;;;;;;5032428;28;20029;-88
2022/09/22 09:49:08;;;;;;;1.48;0.43;;;15.20;99.90;;;;;;5032081;28;20036;-89
2022/09/22 09:51:37;;;;;;;1.38;0.47;;;15.30;99.90;;;;;;5029354;28;20508;-88
2022/09/22 09:54:05;;;;;;;1.45;0.40;;;15.50;99.90;;;;;;5030535;28;20053;-88
2022/09/22 09:56:32;;;;;;;1.92;0.40;;;15.50;99.90;;;;;;5032234;28;20406;-88
2022/09/22 10:01:46;;;;;;;1.23;0.30;;;15.10;99.90;;;;;;5034286;28;20099;-89
2022/09/22 10:04:55;;;;;;;2.55;0.40;;;15.00;99.90;;;;;;5038505;28;20033;-88
2022/09/22 10:07:47;;;;;;;1.27;0.30;;;15.00;99.90;;;;;;4955426;28;20399;-88
2022/09/22 10:10:32;;;;;;;1.07;0.40;;;15.20;99.90;;;;;;5034634;28;20026;-87
2022/09/22 10:13:04;;;;;;;1.20;0.30;;;15.50;99.90;;;;;;5032123;28;20636;-89
2022/09/22 10:15:33;;;;;;;2.47;0.32;;;15.70;99.90;;;;;;5038464;28;20033;-88
2022/09/22 10:18:00;;;;;;;1.10;0.32;;;15.70;99.90;;;;;;5037181;28;20029;-88
2022/09/22 10:20:31;;;;;;;1.52;0.30;;;15.60;99.90;;;;;;5036123;28;20014;-89
2022/09/22 10:23:20;;;;;;;1.48;0.57;;;15.50;99.90;;;;;;5029442;28;20045;-89
2022/09/22 10:25:48;;;;;;;0.52;0.20;;;15.60;99.90;;;;;;5036519;28;20022;-88
2022/09/22 10:28:18;;;;;;;1.58;0.50;;;15.80;99.90;;;;;;5033324;28;20025;-89
2022/09/22 10:30:57;;;;;;;1.73;0.60;;;15.80;99.90;;;;;;5040847;28;20109;-89
2022/09/22 10:33:26;;;;;;;1.45;0.40;;;16.10;99.90;;;;;;5037405;28;20018;-89
2022/09/22 10:36:02;;;;;;;0.32;0.20;;;16.30;99.90;;;;;;5036443;28;20028;-89
2022/09/22 10:38:28;;;;;;;0.95;0.30;;;16.50;99.90;;;;;;5036684;28;20603;-89
2022/09/22 10:41:32;;;;;;;1.38;0.22;;;16.60;99.90;;;;;;5037982;28;20087;-89
2022/09/22 10:44:19;;;;;;;0.70;0.25;;;16.40;99.90;;;;;;5020379;28;20034;-89
2022/09/22 10:47:16;;;;;;;0.85;0.20;;;16.50;99.90;;;;;;5040589;28;20021;-89
2022/09/22 10:50:03;;;;;;;1.40;0.20;;;16.60;99.90;;;;;;5053422;28;20021;-89
2022/09/22 10:52:37;;;;;;;0.35;0.17;;;16.80;99.90;;;;;;5039751;28;20032;-88
2022/09/22 10:55:18;;;;;;;0.75;0.20;;;16.70;99.40;;;;;;5033003;28;20037;-89
2022/09/22 10:57:57;;;;;;;0.63;0.20;;;16.90;99.70;;;;;;5037208;28;20021;-90
2022/09/22 11:00:26;;;;;;;0.20;0.10;;;16.90;99.40;;;;;;5037460;28;20414;-89
2022/09/22 11:03:10;;;;;;;1.02;0.40;;;17.00;98.80;;;;;;5039377;28;20089;-89
2022/09/22 11:12:18;;;;;;;0.63;0.20;;;17.20;98.50;;;;;;5020459;28;20056;-88
2022/09/22 11:14:44;;;;;;;;;;;17.20;97.60;;;;;;5041354;28;20017;-88
2022/09/22 11:17:39;;;;;;;1.10;0.47;;;17.30;97.00;;;;;;5040100;28;19916;-89
2022/09/22 11:20:04;;;;;;;1.27;0.30;;;17.40;97.50;;;;;;5040600;28;20727;-89
2022/09/22 11:23:08;;;;;;;1.35;0.20;;;17.70;97.10;;;;;;5039291;28;20029;-89
2022/09/22 11:26:11;;;;;;;1.42;0.30;;;17.60;96.80;;;;;;5040560;28;20033;-89
2022/09/22 11:29:07;;;;;;;0.38;0.17;;;17.80;96.80;;;;;;5038693;28;20504;-89
2022/09/22 11:31:49;;;;;;;0.40;0.20;;;18.00;96.80;;;;;;5039007;28;20025;-90
2022/09/22 11:34:30;;;;;;;0.35;0.20;;;17.90;96.30;;;;;;5042310;28;20013;-89
2022/09/22 11:37:24;;;;;;;0.30;0.10;;;18.20;96.30;;;;;;5040659;28;20025;-90
2022/09/22 11:39:59;;;;;;;0.93;0.20;;;18.10;95.30;;;;;;5040577;28;20125;-89
2022/09/22 11:42:49;;;;;;;0.38;0.10;;;18.30;95.70;;;;;;5041681;28;20032;-89
2022/09/22 11:45:47;;;;;;;0.45;0.30;;;18.20;95.40;;;;;;5034062;28;20044;-88
2022/09/22 11:48:33;;;;;;;0.60;0.10;;;18.10;95.10;;;;;;5036791;28;20036;-88
2022/09/22 11:51:02;;;;;;;1.15;0.20;;;18.40;95.50;;;;;;5041733;28;20044;-89
2022/09/22 11:53:49;;;;;;;0.77;0.20;;;18.50;94.40;;;;;;5036598;28;20116;-90
2022/09/22 11:56:39;;;;;;;0.28;0.20;;;18.50;95.00;;;;;;5053837;28;20018;-89
2022/09/22 11:59:36;;;;;;;1.55;0.30;;;18.60;94.40;;;;;;5037906;28;20571;-89
2022/09/22 12:02:25;;;;;;;0.85;0.20;;;18.70;94.30;;;;;;5041256;28;20462;-89
2022/09/22 12:04:53;;;;;;;1.92;0.20;;;18.80;95.10;;;;;;5038149;28;20018;-89
2022/09/22 12:07:33;;;;;;;0.25;0.13;;;19.00;93.90;;;;;;5040181;28;20049;-89
2022/09/22 12:10:29;;;;;;;0.57;0.22;;;19.10;93.70;;;;;;5038623;28;20285;-87
2022/09/22 12:12:55;;;;;;;0.63;0.20;;;19.00;93.90;;;;;;5031259;28;20379;-89
2022/09/22 12:15:51;;;;;;;0.30;0.10;;;19.10;93.10;;;;;;5038131;28;20112;-89
2022/09/22 12:18:39;;;;;;;0.40;0.17;;;19.10;93.50;;;;;;5033828;28;20096;-89
2022/09/22 12:21:23;;;;;;;1.08;0.20;;;19.30;92.90;;;;;;5036599;28;20022;-89
2022/09/22 12:23:52;;;;;;;0.88;0.20;;;19.10;93.30;;;;;;5037466;28;20034;-87
2022/09/22 12:26:32;;;;;;;0.47;0.10;;;19.40;92.90;;;;;;5033881;28;20090;-88
2022/09/22 12:29:09;;;;;;;0.80;0.30;;;19.20;92.00;;;;;;5032078;28;20065;-89
2022/09/22 12:31:38;;;;;;;0.38;0.20;;;19.10;91.70;;;;;;5037014;28;20033;-88
2022/09/22 12:34:20;;;;;;;0.73;0.20;;;19.10;92.20;;;;;;5036305;28;20025;-88
2022/09/22 12:36:50;;;;;;;0.68;0.30;;;19.20;93.30;;;;;;5036427;28;20034;-88
2022/09/22 12:39:22;;;;;;;0.70;0.20;;;19.40;92.60;;;;;;5038610;28;20478;-88
2022/09/22 12:41:47;;;;;;;0.20;0.10;;;19.10;92.30;;;;;;5038580;28;20112;-90
2022/09/22 12:44:20;;;;;;;1.55;0.20;;;19.00;93.30;;;;;;5038373;28;20057;-89
2022/09/22 12:46:49;;;;;;;0.30;0.15;;;19.00;91.90;;;;;;5038202;28;20029;-88
2022/09/22 12:49:19;;;;;;;0.63;0.13;;;18.90;92.50;;;;;;5034760;28;20068;-89
2022/09/22 12:51:47;;;;;;;0.60;0.20;;;19.20;92.10;;;;;;5038878;28;20045;-89
2022/09/22 12:54:22;;;;;;;0.30;0.10;;;19.30;91.60;;;;;;5034025;28;20478;-88
2022/09/22 12:57:19;;;;;;;0.50;0.10;;;19.70;91.90;;;;;;5038237;28;20083;-89
2022/09/22 12:59:53;;;;;;;0.28;0.15;;;19.80;91.10;;;;;;5038001;28;20041;-88
2022/09/22 13:02:44;;;;;;;1.15;0.38;;;19.70;90.90;;;;;;5037605;28;20065;-88
2022/09/22 13:05:10;;;;;;;0.63;0.20;;;19.60;90.10;;;;;;5033707;28;20052;-89
2022/09/22 13:07:43;;;;;;;0.52;0.20;;;19.60;90.60;;;;;;5037939;28;20021;-89
2022/09/22 13:10:21;;;;;;;0.38;0.17;;;20.00;90.70;;;;;;5039039;28;20022;-89
2022/09/22 13:13:03;;;;;;;0.70;0.20;;;20.10;90.80;;;;;;5041597;28;20032;-88
2022/09/22 13:15:48;;;;;;;0.63;0.22;;;20.50;90.70;;;;;;5040474;28;20052;-88
2022/09/22 13:18:38;;;;;;;0.52;0.20;;;20.50;90.10;;;;;;5060121;28;20072;-87
2022/09/22 13:21:13;;;;;;;0.47;0.20;;;20.70;87.80;;;;;;5040659;28;20022;-88
2022/09/22 13:23:48;;;;;;;1.02;0.20;;;20.80;88.80;;;;;;5041646;28;20653;-89
2022/09/22 13:26:15;;;;;;;0.40;0.20;;;20.90;89.00;;;;;;5039569;28;20114;-87
2022/09/22 13:28:41;;;;;;;0.30;0.17;;;21.20;89.30;;;;;;5040527;28;20042;-87
2022/09/22 13:31:35;;;;;;;0.43;0.17;;;21.30;85.90;;;;;;5036542;28;20059;-87
2022/09/22 13:34:16;;;;;;;1.02;0.20;;;21.40;85.90;;;;;;5056214;28;20038;-87